sensor_id;sensor_type;location;lat;lon;timestamp;P1;durP1;ratioP1;P2;durP2;ratioP2
24090;SDS011;12272;52.426;17.100;2023-01-04T00:03:24;52.17;;;30.33;;
24090;SDS011;12272;52.426;17.100;2023-01-04T00:08:28;53.60;;;30.73;;
24090;SDS011;12272;52.426;17.100;2023-01-04T00:13:30;52.30;;;30.23;;
24090;SDS011;12272;52.426;17.100;2023-01-04T00:18:34;46.67;;;29.43;;
24090;SDS011;12272;52.426;17.100;2023-01-04T00:23:38;47.67;;;28.97;;
24090;SDS011;12272;52.426;17.100;2023-01-04T00:28:42;51.97;;;30.67;;
24090;SDS011;12272;52.426;17.100;2023-01-04T00:33:53;43.43;;;27.43;;
24090;SDS011;12272;52.426;17.100;2023-01-04T00:39:00;50.60;;;27.80;;
24090;SDS011;12272;52.426;17.100;2023-01-04T00:44:11;44.50;;;27.30;;
24090;SDS011;12272;52.426;17.100;2023-01-04T00:49:14;43.63;;;27.17;;
24090;SDS011;12272;52.426;17.100;2023-01-04T00:54:17;42.10;;;26.83;;
24090;SDS011;12272;52.426;17.100;2023-01-04T00:59:20;40.17;;;25.67;;
24090;SDS011;12272;52.426;17.100;2023-01-04T01:04:24;41.27;;;25.30;;
24090;SDS011;12272;52.426;17.100;2023-01-04T01:09:26;42.90;;;27.17;;
24090;SDS011;12272;52.426;17.100;2023-01-04T01:14:29;39.60;;;27.33;;
24090;SDS011;12272;52.426;17.100;2023-01-04T01:19:32;42.77;;;25.00;;
24090;SDS011;12272;52.426;17.100;2023-01-04T01:24:35;41.53;;;26.73;;
24090;SDS011;12272;52.426;17.100;2023-01-04T01:29:37;40.70;;;26.60;;
24090;SDS011;12272;52.426;17.100;2023-01-04T01:34:40;43.07;;;25.10;;
24090;SDS011;12272;52.426;17.100;2023-01-04T01:39:42;41.60;;;26.67;;
24090;SDS011;12272;52.426;17.100;2023-01-04T01:49:55;30.53;;;18.73;;
24090;SDS011;12272;52.426;17.100;2023-01-04T01:54:58;36.20;;;24.07;;
24090;SDS011;12272;52.426;17.100;2023-01-04T02:00:05;38.13;;;23.57;;
24090;SDS011;12272;52.426;17.100;2023-01-04T02:05:17;44.53;;;23.73;;
24090;SDS011;12272;52.426;17.100;2023-01-04T02:10:21;42.27;;;25.53;;
24090;SDS011;12272;52.426;17.100;2023-01-04T02:15:25;39.97;;;23.20;;
24090;SDS011;12272;52.426;17.100;2023-01-04T02:20:36;38.83;;;24.53;;
24090;SDS011;12272;52.426;17.100;2023-01-04T02:36:24;36.97;;;23.20;;
24090;SDS011;12272;52.426;17.100;2023-01-04T02:41:42;29.23;;;18.23;;
24090;SDS011;12272;52.426;17.100;2023-01-04T02:47:06;36.20;;;23.87;;
24090;SDS011;12272;52.426;17.100;2023-01-04T02:52:15;40.03;;;24.63;;
24090;SDS011;12272;52.426;17.100;2023-01-04T03:13:39;39.03;;;22.73;;
24090;SDS011;12272;52.426;17.100;2023-01-04T03:18:47;37.87;;;20.93;;
24090;SDS011;12272;52.426;17.100;2023-01-04T03:23:54;48.00;;;30.63;;
24090;SDS011;12272;52.426;17.100;2023-01-04T03:29:20;35.93;;;22.70;;
24090;SDS011;12272;52.426;17.100;2023-01-04T03:34:49;43.60;;;30.60;;
24090;SDS011;12272;52.426;17.100;2023-01-04T03:45:47;30.93;;;19.80;;
24090;SDS011;12272;52.426;17.100;2023-01-04T03:51:13;44.87;;;29.07;;
24090;SDS011;12272;52.426;17.100;2023-01-04T03:56:19;35.93;;;22.67;;
24090;SDS011;12272;52.426;17.100;2023-01-04T04:01:24;36.53;;;24.00;;
24090;SDS011;12272;52.426;17.100;2023-01-04T04:06:28;31.27;;;21.33;;
24090;SDS011;12272;52.426;17.100;2023-01-04T04:11:49;36.70;;;24.07;;
24090;SDS011;12272;52.426;17.100;2023-01-04T04:16:52;41.90;;;27.80;;
24090;SDS011;12272;52.426;17.100;2023-01-04T04:21:54;31.57;;;22.67;;
24090;SDS011;12272;52.426;17.100;2023-01-04T04:26:57;35.00;;;22.97;;
24090;SDS011;12272;52.426;17.100;2023-01-04T04:31:59;42.20;;;26.43;;
24090;SDS011;12272;52.426;17.100;2023-01-04T04:37:02;37.80;;;24.70;;
24090;SDS011;12272;52.426;17.100;2023-01-04T04:42:04;32.87;;;23.00;;
24090;SDS011;12272;52.426;17.100;2023-01-04T04:47:07;31.60;;;21.07;;
24090;SDS011;12272;52.426;17.100;2023-01-04T04:52:09;31.77;;;19.63;;
24090;SDS011;12272;52.426;17.100;2023-01-04T04:57:12;33.47;;;21.73;;
24090;SDS011;12272;52.426;17.100;2023-01-04T05:02:15;35.40;;;21.67;;
24090;SDS011;12272;52.426;17.100;2023-01-04T05:07:17;38.17;;;23.17;;
24090;SDS011;12272;52.426;17.100;2023-01-04T05:12:20;32.67;;;20.77;;
24090;SDS011;12272;52.426;17.100;2023-01-04T05:17:41;33.23;;;22.13;;
24090;SDS011;12272;52.426;17.100;2023-01-04T05:22:44;30.73;;;20.07;;
24090;SDS011;12272;52.426;17.100;2023-01-04T05:27:47;30.77;;;20.63;;
24090;SDS011;12272;52.426;17.100;2023-01-04T05:32:49;31.73;;;21.07;;
24090;SDS011;12272;52.426;17.100;2023-01-04T05:37:52;28.90;;;18.73;;
24090;SDS011;12272;52.426;17.100;2023-01-04T05:42:54;31.03;;;20.63;;
24090;SDS011;12272;52.426;17.100;2023-01-04T05:47:57;29.93;;;18.97;;
24090;SDS011;12272;52.426;17.100;2023-01-04T05:53:00;22.37;;;15.80;;
24090;SDS011;12272;52.426;17.100;2023-01-04T05:58:03;28.93;;;19.17;;
24090;SDS011;12272;52.426;17.100;2023-01-04T06:03:05;26.53;;;19.07;;
24090;SDS011;12272;52.426;17.100;2023-01-04T06:08:08;27.57;;;19.40;;
24090;SDS011;12272;52.426;17.100;2023-01-04T06:13:11;26.47;;;18.50;;
24090;SDS011;12272;52.426;17.100;2023-01-04T06:18:13;25.83;;;18.43;;
24090;SDS011;12272;52.426;17.100;2023-01-04T06:23:16;32.03;;;18.30;;
24090;SDS011;12272;52.426;17.100;2023-01-04T06:28:18;29.03;;;17.83;;
24090;SDS011;12272;52.426;17.100;2023-01-04T06:33:21;25.77;;;18.10;;
24090;SDS011;12272;52.426;17.100;2023-01-04T06:38:23;35.30;;;24.77;;
24090;SDS011;12272;52.426;17.100;2023-01-04T06:43:26;24.63;;;16.90;;
24090;SDS011;12272;52.426;17.100;2023-01-04T06:48:29;27.00;;;18.17;;
24090;SDS011;12272;52.426;17.100;2023-01-04T06:53:32;34.40;;;20.00;;
24090;SDS011;12272;52.426;17.100;2023-01-04T06:58:35;24.80;;;18.23;;
24090;SDS011;12272;52.426;17.100;2023-01-04T07:03:38;26.57;;;18.23;;
24090;SDS011;12272;52.426;17.100;2023-01-04T07:08:40;27.67;;;18.30;;
24090;SDS011;12272;52.426;17.100;2023-01-04T07:13:43;33.80;;;22.03;;
24090;SDS011;12272;52.426;17.100;2023-01-04T07:18:45;34.83;;;24.40;;
24090;SDS011;12272;52.426;17.100;2023-01-04T07:23:48;35.27;;;23.93;;
24090;SDS011;12272;52.426;17.100;2023-01-04T07:28:51;30.30;;;20.23;;
24090;SDS011;12272;52.426;17.100;2023-01-04T07:34:13;30.50;;;17.57;;
24090;SDS011;12272;52.426;17.100;2023-01-04T07:39:17;26.37;;;17.30;;
24090;SDS011;12272;52.426;17.100;2023-01-04T07:44:21;26.47;;;16.60;;
24090;SDS011;12272;52.426;17.100;2023-01-04T07:49:26;23.70;;;14.83;;
24090;SDS011;12272;52.426;17.100;2023-01-04T07:54:29;20.37;;;14.27;;
24090;SDS011;12272;52.426;17.100;2023-01-04T07:59:31;22.67;;;14.57;;
24090;SDS011;12272;52.426;17.100;2023-01-04T08:04:34;18.83;;;13.73;;
24090;SDS011;12272;52.426;17.100;2023-01-04T08:09:36;23.37;;;13.13;;
24090;SDS011;12272;52.426;17.100;2023-01-04T08:14:39;21.63;;;13.50;;
24090;SDS011;12272;52.426;17.100;2023-01-04T08:19:41;18.47;;;13.40;;
24090;SDS011;12272;52.426;17.100;2023-01-04T08:24:45;20.67;;;13.33;;
24090;SDS011;12272;52.426;17.100;2023-01-04T08:29:47;19.20;;;12.23;;
24090;SDS011;12272;52.426;17.100;2023-01-04T08:34:50;16.50;;;10.30;;
24090;SDS011;12272;52.426;17.100;2023-01-04T08:39:54;15.90;;;10.30;;
24090;SDS011;12272;52.426;17.100;2023-01-04T08:44:57;18.20;;;12.17;;
24090;SDS011;12272;52.426;17.100;2023-01-04T08:50:03;15.27;;;10.53;;
24090;SDS011;12272;52.426;17.100;2023-01-04T08:55:11;17.20;;;10.30;;
24090;SDS011;12272;52.426;17.100;2023-01-04T09:00:18;14.03;;;8.03;;
24090;SDS011;12272;52.426;17.100;2023-01-04T09:05:22;15.40;;;9.23;;
24090;SDS011;12272;52.426;17.100;2023-01-04T09:10:26;18.80;;;11.70;;
24090;SDS011;12272;52.426;17.100;2023-01-04T09:15:30;17.37;;;11.00;;
24090;SDS011;12272;52.426;17.100;2023-01-04T09:20:36;19.10;;;12.30;;
24090;SDS011;12272;52.426;17.100;2023-01-04T09:25:39;17.80;;;10.37;;
24090;SDS011;12272;52.426;17.100;2023-01-04T09:30:41;14.13;;;9.23;;
24090;SDS011;12272;52.426;17.100;2023-01-04T09:35:44;12.87;;;8.93;;
24090;SDS011;12272;52.426;17.100;2023-01-04T09:40:58;12.20;;;8.90;;
24090;SDS011;12272;52.426;17.100;2023-01-04T09:46:04;14.50;;;9.53;;
24090;SDS011;12272;52.426;17.100;2023-01-04T09:51:11;15.60;;;9.70;;
24090;SDS011;12272;52.426;17.100;2023-01-04T09:56:25;13.83;;;9.07;;
24090;SDS011;12272;52.426;17.100;2023-01-04T10:01:38;15.83;;;9.10;;
24090;SDS011;12272;52.426;17.100;2023-01-04T10:07:01;13.77;;;8.60;;
24090;SDS011;12272;52.426;17.100;2023-01-04T10:17:57;13.83;;;8.23;;
24090;SDS011;12272;52.426;17.100;2023-01-04T10:34:31;14.50;;;9.30;;
24090;SDS011;12272;52.426;17.100;2023-01-04T10:39:39;17.03;;;10.43;;
24090;SDS011;12272;52.426;17.100;2023-01-04T10:50:13;16.50;;;10.93;;
24090;SDS011;12272;52.426;17.100;2023-01-04T11:01:16;16.17;;;10.60;;
24090;SDS011;12272;52.426;17.100;2023-01-04T11:06:28;13.77;;;9.47;;
24090;SDS011;12272;52.426;17.100;2023-01-04T11:11:40;14.93;;;9.93;;
24090;SDS011;12272;52.426;17.100;2023-01-04T11:16:48;14.47;;;9.83;;
24090;SDS011;12272;52.426;17.100;2023-01-04T11:22:13;12.77;;;9.10;;
24090;SDS011;12272;52.426;17.100;2023-01-04T11:27:23;11.57;;;9.00;;
24090;SDS011;12272;52.426;17.100;2023-01-04T11:32:41;11.57;;;7.93;;
24090;SDS011;12272;52.426;17.100;2023-01-04T11:37:45;14.47;;;8.13;;
24090;SDS011;12272;52.426;17.100;2023-01-04T11:42:52;10.93;;;7.60;;
24090;SDS011;12272;52.426;17.100;2023-01-04T11:48:15;10.93;;;7.80;;
24090;SDS011;12272;52.426;17.100;2023-01-04T11:53:21;16.37;;;9.37;;
24090;SDS011;12272;52.426;17.100;2023-01-04T11:58:29;20.40;;;11.50;;
24090;SDS011;12272;52.426;17.100;2023-01-04T12:03:35;16.97;;;9.67;;
24090;SDS011;12272;52.426;17.100;2023-01-04T12:08:39;12.23;;;8.47;;
24090;SDS011;12272;52.426;17.100;2023-01-04T12:13:43;11.20;;;8.27;;
24090;SDS011;12272;52.426;17.100;2023-01-04T12:18:46;10.73;;;7.67;;
24090;SDS011;12272;52.426;17.100;2023-01-04T12:23:50;10.60;;;7.57;;
24090;SDS011;12272;52.426;17.100;2023-01-04T12:39:44;9.67;;;6.80;;
24090;SDS011;12272;52.426;17.100;2023-01-04T12:54:59;11.00;;;7.83;;
24090;SDS011;12272;52.426;17.100;2023-01-04T13:00:13;13.83;;;8.77;;
24090;SDS011;12272;52.426;17.100;2023-01-04T13:10:41;12.97;;;8.10;;
24090;SDS011;12272;52.426;17.100;2023-01-04T13:21:32;10.73;;;7.60;;
24090;SDS011;12272;52.426;17.100;2023-01-04T13:31:45;15.60;;;7.10;;
24090;SDS011;12272;52.426;17.100;2023-01-04T13:47:28;9.00;;;5.93;;
24090;SDS011;12272;52.426;17.100;2023-01-04T13:52:34;11.17;;;7.20;;
24090;SDS011;12272;52.426;17.100;2023-01-04T13:58:01;19.97;;;7.37;;
24090;SDS011;12272;52.426;17.100;2023-01-04T14:08:15;12.47;;;9.33;;
24090;SDS011;12272;52.426;17.100;2023-01-04T14:13:23;12.33;;;7.70;;
24090;SDS011;12272;52.426;17.100;2023-01-04T14:18:26;14.43;;;9.23;;
24090;SDS011;12272;52.426;17.100;2023-01-04T14:23:34;13.50;;;8.17;;
24090;SDS011;12272;52.426;17.100;2023-01-04T14:28:39;18.30;;;12.20;;
24090;SDS011;12272;52.426;17.100;2023-01-04T14:33:51;19.50;;;12.33;;
24090;SDS011;12272;52.426;17.100;2023-01-04T14:49:13;11.83;;;6.13;;
24090;SDS011;12272;52.426;17.100;2023-01-04T14:54:16;9.60;;;6.37;;
24090;SDS011;12272;52.426;17.100;2023-01-04T14:59:26;8.50;;;4.73;;
24090;SDS011;12272;52.426;17.100;2023-01-04T15:04:29;7.60;;;5.20;;
24090;SDS011;12272;52.426;17.100;2023-01-04T15:09:32;8.07;;;6.03;;
24090;SDS011;12272;52.426;17.100;2023-01-04T15:14:35;6.73;;;4.50;;
24090;SDS011;12272;52.426;17.100;2023-01-04T15:19:37;10.23;;;5.83;;
24090;SDS011;12272;52.426;17.100;2023-01-04T15:24:40;8.73;;;5.13;;
24090;SDS011;12272;52.426;17.100;2023-01-04T15:29:42;12.33;;;5.80;;
24090;SDS011;12272;52.426;17.100;2023-01-04T15:34:47;9.27;;;4.60;;
24090;SDS011;12272;52.426;17.100;2023-01-04T15:39:54;9.83;;;5.97;;
24090;SDS011;12272;52.426;17.100;2023-01-04T15:45:03;6.77;;;4.73;;
24090;SDS011;12272;52.426;17.100;2023-01-04T15:50:06;7.43;;;3.93;;
24090;SDS011;12272;52.426;17.100;2023-01-04T15:55:10;9.43;;;4.87;;
24090;SDS011;12272;52.426;17.100;2023-01-04T16:00:13;6.80;;;2.87;;
24090;SDS011;12272;52.426;17.100;2023-01-04T16:05:16;6.97;;;4.30;;
24090;SDS011;12272;52.426;17.100;2023-01-04T16:10:21;5.80;;;1.90;;
24090;SDS011;12272;52.426;17.100;2023-01-04T16:15:24;3.70;;;3.00;;
24090;SDS011;12272;52.426;17.100;2023-01-04T16:20:26;6.83;;;2.73;;
24090;SDS011;12272;52.426;17.100;2023-01-04T16:25:29;10.00;;;5.40;;
24090;SDS011;12272;52.426;17.100;2023-01-04T16:30:37;7.77;;;5.47;;
24090;SDS011;12272;52.426;17.100;2023-01-04T16:36:12;5.87;;;3.60;;
24090;SDS011;12272;52.426;17.100;2023-01-04T16:41:17;7.80;;;4.80;;
24090;SDS011;12272;52.426;17.100;2023-01-04T16:46:26;6.47;;;4.23;;
24090;SDS011;12272;52.426;17.100;2023-01-04T16:51:33;6.00;;;4.43;;
24090;SDS011;12272;52.426;17.100;2023-01-04T16:56:37;8.70;;;3.63;;
24090;SDS011;12272;52.426;17.100;2023-01-04T17:01:40;5.83;;;3.77;;
24090;SDS011;12272;52.426;17.100;2023-01-04T17:06:53;5.03;;;4.53;;
24090;SDS011;12272;52.426;17.100;2023-01-04T17:11:59;7.00;;;3.37;;
24090;SDS011;12272;52.426;17.100;2023-01-04T17:17:22;5.80;;;3.93;;
24090;SDS011;12272;52.426;17.100;2023-01-04T17:22:25;3.70;;;2.97;;
24090;SDS011;12272;52.426;17.100;2023-01-04T17:27:35;7.23;;;4.50;;
24090;SDS011;12272;52.426;17.100;2023-01-04T17:32:37;6.63;;;4.47;;
24090;SDS011;12272;52.426;17.100;2023-01-04T17:37:40;6.83;;;4.90;;
24090;SDS011;12272;52.426;17.100;2023-01-04T17:42:42;5.27;;;3.93;;
24090;SDS011;12272;52.426;17.100;2023-01-04T17:47:46;5.23;;;3.27;;
24090;SDS011;12272;52.426;17.100;2023-01-04T17:52:49;6.20;;;4.40;;
24090;SDS011;12272;52.426;17.100;2023-01-04T17:57:51;7.23;;;4.97;;
24090;SDS011;12272;52.426;17.100;2023-01-04T18:02:54;3.63;;;2.47;;
24090;SDS011;12272;52.426;17.100;2023-01-04T18:07:57;6.43;;;4.40;;
24090;SDS011;12272;52.426;17.100;2023-01-04T18:12:59;6.67;;;5.10;;
24090;SDS011;12272;52.426;17.100;2023-01-04T18:18:02;8.23;;;5.27;;
24090;SDS011;12272;52.426;17.100;2023-01-04T18:23:04;6.17;;;4.43;;
24090;SDS011;12272;52.426;17.100;2023-01-04T18:28:07;10.57;;;4.83;;
24090;SDS011;12272;52.426;17.100;2023-01-04T18:33:09;6.30;;;4.77;;
24090;SDS011;12272;52.426;17.100;2023-01-04T18:38:12;7.47;;;5.07;;
24090;SDS011;12272;52.426;17.100;2023-01-04T18:43:14;5.90;;;4.67;;
24090;SDS011;12272;52.426;17.100;2023-01-04T18:48:17;4.63;;;2.97;;
24090;SDS011;12272;52.426;17.100;2023-01-04T18:53:19;9.50;;;5.70;;
24090;SDS011;12272;52.426;17.100;2023-01-04T18:58:22;7.37;;;5.57;;
24090;SDS011;12272;52.426;17.100;2023-01-04T19:03:25;4.63;;;3.50;;
24090;SDS011;12272;52.426;17.100;2023-01-04T19:08:27;3.10;;;2.23;;
24090;SDS011;12272;52.426;17.100;2023-01-04T19:13:30;3.57;;;2.50;;
24090;SDS011;12272;52.426;17.100;2023-01-04T19:18:33;3.53;;;2.80;;
24090;SDS011;12272;52.426;17.100;2023-01-04T19:23:36;4.63;;;3.53;;
24090;SDS011;12272;52.426;17.100;2023-01-04T19:28:39;5.43;;;3.83;;
24090;SDS011;12272;52.426;17.100;2023-01-04T19:33:41;6.63;;;4.70;;
24090;SDS011;12272;52.426;17.100;2023-01-04T19:38:44;5.83;;;3.77;;
24090;SDS011;12272;52.426;17.100;2023-01-04T19:43:47;6.23;;;4.10;;
24090;SDS011;12272;52.426;17.100;2023-01-04T19:48:50;7.97;;;3.90;;
24090;SDS011;12272;52.426;17.100;2023-01-04T19:53:53;5.53;;;4.43;;
24090;SDS011;12272;52.426;17.100;2023-01-04T19:58:56;6.30;;;4.30;;
24090;SDS011;12272;52.426;17.100;2023-01-04T20:03:58;5.97;;;4.13;;
24090;SDS011;12272;52.426;17.100;2023-01-04T20:09:01;5.27;;;4.43;;
24090;SDS011;12272;52.426;17.100;2023-01-04T20:14:04;6.40;;;2.80;;
24090;SDS011;12272;52.426;17.100;2023-01-04T20:19:06;4.80;;;3.57;;
24090;SDS011;12272;52.426;17.100;2023-01-04T20:24:09;7.97;;;4.40;;
24090;SDS011;12272;52.426;17.100;2023-01-04T20:29:12;4.70;;;4.03;;
24090;SDS011;12272;52.426;17.100;2023-01-04T20:34:14;6.00;;;4.13;;
24090;SDS011;12272;52.426;17.100;2023-01-04T20:39:16;5.23;;;2.93;;
24090;SDS011;12272;52.426;17.100;2023-01-04T20:44:21;5.63;;;3.90;;
24090;SDS011;12272;52.426;17.100;2023-01-04T20:49:23;1.30;;;1.00;;
24090;SDS011;12272;52.426;17.100;2023-01-04T20:54:26;5.10;;;3.27;;
24090;SDS011;12272;52.426;17.100;2023-01-04T20:59:28;5.30;;;3.77;;
24090;SDS011;12272;52.426;17.100;2023-01-04T21:04:31;6.07;;;3.50;;
24090;SDS011;12272;52.426;17.100;2023-01-04T21:09:34;6.53;;;3.97;;
24090;SDS011;12272;52.426;17.100;2023-01-04T21:14:36;5.27;;;3.67;;
24090;SDS011;12272;52.426;17.100;2023-01-04T21:19:39;5.43;;;3.37;;
24090;SDS011;12272;52.426;17.100;2023-01-04T21:24:41;5.73;;;3.70;;
24090;SDS011;12272;52.426;17.100;2023-01-04T21:29:45;5.40;;;3.90;;
24090;SDS011;12272;52.426;17.100;2023-01-04T21:34:47;9.13;;;5.70;;
24090;SDS011;12272;52.426;17.100;2023-01-04T21:39:50;5.53;;;2.80;;
24090;SDS011;12272;52.426;17.100;2023-01-04T21:44:52;5.10;;;3.93;;
24090;SDS011;12272;52.426;17.100;2023-01-04T21:49:55;6.53;;;3.20;;
24090;SDS011;12272;52.426;17.100;2023-01-04T21:54:58;4.93;;;3.83;;
24090;SDS011;12272;52.426;17.100;2023-01-04T22:00:00;5.27;;;3.47;;
24090;SDS011;12272;52.426;17.100;2023-01-04T22:05:06;3.47;;;2.90;;
24090;SDS011;12272;52.426;17.100;2023-01-04T22:10:09;5.10;;;3.70;;
24090;SDS011;12272;52.426;17.100;2023-01-04T22:15:11;5.17;;;2.80;;
24090;SDS011;12272;52.426;17.100;2023-01-04T22:20:14;4.30;;;3.30;;
24090;SDS011;12272;52.426;17.100;2023-01-04T22:25:18;4.30;;;3.00;;
24090;SDS011;12272;52.426;17.100;2023-01-04T22:30:29;4.83;;;3.00;;
24090;SDS011;12272;52.426;17.100;2023-01-04T22:35:31;5.57;;;3.27;;
24090;SDS011;12272;52.426;17.100;2023-01-04T22:40:34;4.00;;;2.53;;
24090;SDS011;12272;52.426;17.100;2023-01-04T22:45:39;5.50;;;3.93;;
24090;SDS011;12272;52.426;17.100;2023-01-04T22:50:41;3.77;;;2.60;;
24090;SDS011;12272;52.426;17.100;2023-01-04T22:55:44;6.27;;;2.80;;
24090;SDS011;12272;52.426;17.100;2023-01-04T23:01:07;2.50;;;1.80;;
24090;SDS011;12272;52.426;17.100;2023-01-04T23:06:10;3.97;;;2.60;;
24090;SDS011;12272;52.426;17.100;2023-01-04T23:11:15;6.13;;;2.07;;
24090;SDS011;12272;52.426;17.100;2023-01-04T23:16:19;2.13;;;1.53;;
24090;SDS011;12272;52.426;17.100;2023-01-04T23:28:35;4.10;;;1.73;;
24090;SDS011;12272;52.426;17.100;2023-01-04T23:33:38;3.10;;;1.50;;
24090;SDS011;12272;52.426;17.100;2023-01-04T23:38:41;5.53;;;2.07;;
24090;SDS011;12272;52.426;17.100;2023-01-04T23:43:44;2.07;;;1.57;;
24090;SDS011;12272;52.426;17.100;2023-01-04T23:48:46;4.70;;;2.00;;
24090;SDS011;12272;52.426;17.100;2023-01-04T23:53:49;3.67;;;1.93;;
24090;SDS011;12272;52.426;17.100;2023-01-04T23:58:52;2.00;;;1.47;;
